sensor_id;sensor_type;location;lat;lon;timestamp;temperature;humidity
9980;DHT22;5030;51.532;6.766;2023-04-24T00:00:20;11.30;99.90
9980;DHT22;5030;51.532;6.766;2023-04-24T00:02:46;11.30;99.90
9980;DHT22;5030;51.532;6.766;2023-04-24T00:05:16;11.40;99.90
9980;DHT22;5030;51.532;6.766;2023-04-24T00:07:44;11.30;99.90
9980;DHT22;5030;51.532;6.766;2023-04-24T00:10:11;11.40;99.90
9980;DHT22;5030;51.532;6.766;2023-04-24T00:12:37;11.40;99.90
9980;DHT22;5030;51.532;6.766;2023-04-24T00:15:04;11.40;99.90
9980;DHT22;5030;51.532;6.766;2023-04-24T00:17:30;11.30;99.90
9980;DHT22;5030;51.532;6.766;2023-04-24T00:19:56;11.30;99.90
9980;DHT22;5030;51.532;6.766;2023-04-24T00:22:27;11.20;99.90
9980;DHT22;5030;51.532;6.766;2023-04-24T00:24:54;11.20;99.90
9980;DHT22;5030;51.532;6.766;2023-04-24T00:27:19;11.10;99.90
9980;DHT22;5030;51.532;6.766;2023-04-24T00:29:45;11.10;99.90
9980;DHT22;5030;51.532;6.766;2023-04-24T00:32:12;11.10;99.90
9980;DHT22;5030;51.532;6.766;2023-04-24T00:34:40;11.10;99.90
9980;DHT22;5030;51.532;6.766;2023-04-24T00:37:06;11.00;99.90
9980;DHT22;5030;51.532;6.766;2023-04-24T00:39:33;11.10;99.90
9980;DHT22;5030;51.532;6.766;2023-04-24T00:41:59;11.00;99.90
9980;DHT22;5030;51.532;6.766;2023-04-24T00:44:25;11.00;99.90
9980;DHT22;5030;51.532;6.766;2023-04-24T00:46:51;11.00;99.90
9980;DHT22;5030;51.532;6.766;2023-04-24T00:49:21;10.90;99.90
9980;DHT22;5030;51.532;6.766;2023-04-24T00:51:47;10.80;99.90
9980;DHT22;5030;51.532;6.766;2023-04-24T00:54:15;10.70;99.90
9980;DHT22;5030;51.532;6.766;2023-04-24T00:56:41;10.70;99.90
9980;DHT22;5030;51.532;6.766;2023-04-24T00:59:08;10.70;99.90
9980;DHT22;5030;51.532;6.766;2023-04-24T01:01:35;10.60;99.90
9980;DHT22;5030;51.532;6.766;2023-04-24T01:04:01;10.80;99.90
9980;DHT22;5030;51.532;6.766;2023-04-24T01:06:28;10.60;99.90
9980;DHT22;5030;51.532;6.766;2023-04-24T01:08:54;10.70;99.90
9980;DHT22;5030;51.532;6.766;2023-04-24T01:11:21;10.60;99.90
9980;DHT22;5030;51.532;6.766;2023-04-24T01:13:47;10.60;99.90
9980;DHT22;5030;51.532;6.766;2023-04-24T01:16:14;10.50;99.90
9980;DHT22;5030;51.532;6.766;2023-04-24T01:18:43;10.50;99.90
9980;DHT22;5030;51.532;6.766;2023-04-24T01:21:09;10.40;99.90
9980;DHT22;5030;51.532;6.766;2023-04-24T01:23:37;10.50;99.90
9980;DHT22;5030;51.532;6.766;2023-04-24T01:26:03;10.40;99.90
9980;DHT22;5030;51.532;6.766;2023-04-24T01:28:29;10.30;99.90
9980;DHT22;5030;51.532;6.766;2023-04-24T01:30:56;10.30;99.90
9980;DHT22;5030;51.532;6.766;2023-04-24T01:33:22;10.20;99.90
9980;DHT22;5030;51.532;6.766;2023-04-24T01:35:49;10.20;99.90
9980;DHT22;5030;51.532;6.766;2023-04-24T01:38:15;10.30;99.90
9980;DHT22;5030;51.532;6.766;2023-04-24T01:40:41;10.20;99.90
9980;DHT22;5030;51.532;6.766;2023-04-24T01:43:07;10.30;99.90
9980;DHT22;5030;51.532;6.766;2023-04-24T01:45:33;10.30;99.90
9980;DHT22;5030;51.532;6.766;2023-04-24T01:47:58;10.20;99.90
9980;DHT22;5030;51.532;6.766;2023-04-24T01:50:25;10.20;99.90
9980;DHT22;5030;51.532;6.766;2023-04-24T01:52:51;10.20;99.90
9980;DHT22;5030;51.532;6.766;2023-04-24T01:55:17;10.20;99.90
9980;DHT22;5030;51.532;6.766;2023-04-24T02:00:16;10.20;99.90
9980;DHT22;5030;51.532;6.766;2023-04-24T02:02:42;10.20;99.90
9980;DHT22;5030;51.532;6.766;2023-04-24T02:05:08;10.10;99.90
9980;DHT22;5030;51.532;6.766;2023-04-24T02:07:35;10.20;99.90
9980;DHT22;5030;51.532;6.766;2023-04-24T02:10:00;10.30;99.90
9980;DHT22;5030;51.532;6.766;2023-04-24T02:12:27;10.30;99.90
9980;DHT22;5030;51.532;6.766;2023-04-24T02:14:53;10.30;99.90
9980;DHT22;5030;51.532;6.766;2023-04-24T02:17:18;10.30;99.90
9980;DHT22;5030;51.532;6.766;2023-04-24T02:19:44;10.30;99.90
9980;DHT22;5030;51.532;6.766;2023-04-24T02:22:10;10.30;99.90
9980;DHT22;5030;51.532;6.766;2023-04-24T02:24:37;10.40;99.90
9980;DHT22;5030;51.532;6.766;2023-04-24T02:27:02;10.40;99.90
9980;DHT22;5030;51.532;6.766;2023-04-24T02:29:28;10.20;99.90
9980;DHT22;5030;51.532;6.766;2023-04-24T02:31:54;10.20;99.90
9980;DHT22;5030;51.532;6.766;2023-04-24T02:34:19;10.10;99.90
9980;DHT22;5030;51.532;6.766;2023-04-24T02:36:45;10.10;99.90
9980;DHT22;5030;51.532;6.766;2023-04-24T02:39:11;10.20;99.90
9980;DHT22;5030;51.532;6.766;2023-04-24T02:41:36;10.20;99.90
9980;DHT22;5030;51.532;6.766;2023-04-24T02:44:02;10.10;99.90
9980;DHT22;5030;51.532;6.766;2023-04-24T02:46:27;10.20;99.90
9980;DHT22;5030;51.532;6.766;2023-04-24T02:48:53;10.10;99.90
9980;DHT22;5030;51.532;6.766;2023-04-24T02:51:19;10.10;99.90
9980;DHT22;5030;51.532;6.766;2023-04-24T02:53:44;10.10;99.90
9980;DHT22;5030;51.532;6.766;2023-04-24T02:56:10;10.20;99.90
9980;DHT22;5030;51.532;6.766;2023-04-24T02:58:37;10.10;99.90
9980;DHT22;5030;51.532;6.766;2023-04-24T03:01:04;10.10;99.90
9980;DHT22;5030;51.532;6.766;2023-04-24T03:03:30;10.10;99.90
9980;DHT22;5030;51.532;6.766;2023-04-24T03:05:55;10.00;99.90
9980;DHT22;5030;51.532;6.766;2023-04-24T03:08:22;10.00;99.90
9980;DHT22;5030;51.532;6.766;2023-04-24T03:10:48;10.10;99.90
9980;DHT22;5030;51.532;6.766;2023-04-24T03:13:13;10.00;99.90
9980;DHT22;5030;51.532;6.766;2023-04-24T03:15:40;10.10;99.90
9980;DHT22;5030;51.532;6.766;2023-04-24T03:18:06;10.10;99.90
9980;DHT22;5030;51.532;6.766;2023-04-24T03:20:31;10.00;99.90
9980;DHT22;5030;51.532;6.766;2023-04-24T03:22:57;10.00;99.90
9980;DHT22;5030;51.532;6.766;2023-04-24T03:25:23;10.10;99.90
9980;DHT22;5030;51.532;6.766;2023-04-24T03:27:49;10.10;99.90
9980;DHT22;5030;51.532;6.766;2023-04-24T03:30:15;10.00;99.90
9980;DHT22;5030;51.532;6.766;2023-04-24T03:32:40;10.00;99.90
9980;DHT22;5030;51.532;6.766;2023-04-24T03:35:07;10.00;99.90
9980;DHT22;5030;51.532;6.766;2023-04-24T03:37:33;10.00;99.90
9980;DHT22;5030;51.532;6.766;2023-04-24T03:40:00;10.00;99.90
9980;DHT22;5030;51.532;6.766;2023-04-24T03:42:25;10.00;99.90
9980;DHT22;5030;51.532;6.766;2023-04-24T03:44:51;10.10;99.90
9980;DHT22;5030;51.532;6.766;2023-04-24T03:47:16;10.00;99.90
9980;DHT22;5030;51.532;6.766;2023-04-24T03:49:42;10.10;99.90
9980;DHT22;5030;51.532;6.766;2023-04-24T03:52:08;10.00;99.90
9980;DHT22;5030;51.532;6.766;2023-04-24T03:54:33;10.10;99.90
9980;DHT22;5030;51.532;6.766;2023-04-24T03:56:59;10.00;99.90
9980;DHT22;5030;51.532;6.766;2023-04-24T03:59:25;10.10;99.90
9980;DHT22;5030;51.532;6.766;2023-04-24T04:01:51;10.20;99.90
9980;DHT22;5030;51.532;6.766;2023-04-24T04:04:16;10.10;99.90
9980;DHT22;5030;51.532;6.766;2023-04-24T04:06:42;10.20;99.90
9980;DHT22;5030;51.532;6.766;2023-04-24T04:09:09;10.20;99.90
9980;DHT22;5030;51.532;6.766;2023-04-24T04:11:35;10.10;99.90
9980;DHT22;5030;51.532;6.766;2023-04-24T04:14:01;10.10;99.90
9980;DHT22;5030;51.532;6.766;2023-04-24T04:16:27;10.10;99.90
9980;DHT22;5030;51.532;6.766;2023-04-24T04:18:52;10.10;99.90
9980;DHT22;5030;51.532;6.766;2023-04-24T04:21:19;10.10;99.90
9980;DHT22;5030;51.532;6.766;2023-04-24T04:23:45;10.30;99.90
9980;DHT22;5030;51.532;6.766;2023-04-24T04:26:11;10.30;99.90
9980;DHT22;5030;51.532;6.766;2023-04-24T04:28:38;10.20;99.90
9980;DHT22;5030;51.532;6.766;2023-04-24T04:31:04;10.20;99.90
9980;DHT22;5030;51.532;6.766;2023-04-24T04:33:30;10.20;99.90
9980;DHT22;5030;51.532;6.766;2023-04-24T04:35:56;10.30;99.90
9980;DHT22;5030;51.532;6.766;2023-04-24T04:38:22;10.30;99.90
9980;DHT22;5030;51.532;6.766;2023-04-24T04:40:50;10.10;99.90
9980;DHT22;5030;51.532;6.766;2023-04-24T04:43:15;10.20;99.90
9980;DHT22;5030;51.532;6.766;2023-04-24T04:45:41;10.10;99.90
9980;DHT22;5030;51.532;6.766;2023-04-24T04:48:08;10.20;99.90
9980;DHT22;5030;51.532;6.766;2023-04-24T04:50:35;10.30;99.90
9980;DHT22;5030;51.532;6.766;2023-04-24T04:53:01;10.20;99.90
9980;DHT22;5030;51.532;6.766;2023-04-24T04:55:27;10.20;99.90
9980;DHT22;5030;51.532;6.766;2023-04-24T04:57:52;10.10;99.90
9980;DHT22;5030;51.532;6.766;2023-04-24T05:00:18;10.20;99.90
9980;DHT22;5030;51.532;6.766;2023-04-24T05:02:44;10.20;99.90
9980;DHT22;5030;51.532;6.766;2023-04-24T05:05:10;10.10;99.90
9980;DHT22;5030;51.532;6.766;2023-04-24T05:07:36;10.10;99.90
9980;DHT22;5030;51.532;6.766;2023-04-24T05:10:02;10.00;99.90
9980;DHT22;5030;51.532;6.766;2023-04-24T05:12:28;10.00;99.90
9980;DHT22;5030;51.532;6.766;2023-04-24T05:14:54;10.00;99.90
9980;DHT22;5030;51.532;6.766;2023-04-24T05:17:21;10.00;99.90
9980;DHT22;5030;51.532;6.766;2023-04-24T05:19:46;9.90;99.90
9980;DHT22;5030;51.532;6.766;2023-04-24T05:22:13;10.00;99.90
9980;DHT22;5030;51.532;6.766;2023-04-24T05:24:40;9.90;99.90
9980;DHT22;5030;51.532;6.766;2023-04-24T05:27:06;9.90;99.90
9980;DHT22;5030;51.532;6.766;2023-04-24T05:29:31;10.00;99.90
9980;DHT22;5030;51.532;6.766;2023-04-24T05:31:58;9.90;99.90
9980;DHT22;5030;51.532;6.766;2023-04-24T05:34:24;9.80;99.90
9980;DHT22;5030;51.532;6.766;2023-04-24T05:36:50;9.90;99.90
9980;DHT22;5030;51.532;6.766;2023-04-24T05:39:16;9.90;99.90
9980;DHT22;5030;51.532;6.766;2023-04-24T05:41:42;9.80;99.90
9980;DHT22;5030;51.532;6.766;2023-04-24T05:44:08;9.80;99.90
9980;DHT22;5030;51.532;6.766;2023-04-24T05:46:34;9.90;99.90
9980;DHT22;5030;51.532;6.766;2023-04-24T05:49:00;9.80;99.90
9980;DHT22;5030;51.532;6.766;2023-04-24T05:51:26;9.80;99.90
9980;DHT22;5030;51.532;6.766;2023-04-24T05:53:51;10.00;99.90
9980;DHT22;5030;51.532;6.766;2023-04-24T05:56:17;9.90;99.90
9980;DHT22;5030;51.532;6.766;2023-04-24T05:58:44;10.00;99.90
9980;DHT22;5030;51.532;6.766;2023-04-24T06:01:10;9.80;99.90
9980;DHT22;5030;51.532;6.766;2023-04-24T06:03:37;9.70;99.90
9980;DHT22;5030;51.532;6.766;2023-04-24T06:06:03;9.70;99.90
9980;DHT22;5030;51.532;6.766;2023-04-24T06:08:29;9.60;99.90
9980;DHT22;5030;51.532;6.766;2023-04-24T06:10:54;9.60;99.90
9980;DHT22;5030;51.532;6.766;2023-04-24T06:13:20;9.40;99.90
9980;DHT22;5030;51.532;6.766;2023-04-24T06:15:45;9.30;99.90
9980;DHT22;5030;51.532;6.766;2023-04-24T06:18:11;9.40;99.90
9980;DHT22;5030;51.532;6.766;2023-04-24T06:20:38;9.30;99.90
9980;DHT22;5030;51.532;6.766;2023-04-24T06:23:04;9.30;99.90
9980;DHT22;5030;51.532;6.766;2023-04-24T06:25:29;9.40;99.90
9980;DHT22;5030;51.532;6.766;2023-04-24T06:27:56;9.20;99.90
9980;DHT22;5030;51.532;6.766;2023-04-24T06:30:22;9.30;99.90
9980;DHT22;5030;51.532;6.766;2023-04-24T06:32:48;9.40;99.90
9980;DHT22;5030;51.532;6.766;2023-04-24T06:35:14;9.40;99.90
9980;DHT22;5030;51.532;6.766;2023-04-24T06:37:41;9.40;99.90
9980;DHT22;5030;51.532;6.766;2023-04-24T06:40:08;9.20;99.90
9980;DHT22;5030;51.532;6.766;2023-04-24T06:42:34;9.20;99.90
9980;DHT22;5030;51.532;6.766;2023-04-24T06:45:00;9.20;99.90
9980;DHT22;5030;51.532;6.766;2023-04-24T06:47:26;9.20;99.90
9980;DHT22;5030;51.532;6.766;2023-04-24T06:49:52;9.20;99.90
9980;DHT22;5030;51.532;6.766;2023-04-24T06:52:19;9.20;99.90
9980;DHT22;5030;51.532;6.766;2023-04-24T06:54:45;9.20;99.90
9980;DHT22;5030;51.532;6.766;2023-04-24T06:57:10;9.30;99.90
9980;DHT22;5030;51.532;6.766;2023-04-24T06:59:36;9.30;99.90
9980;DHT22;5030;51.532;6.766;2023-04-24T07:02:02;9.30;99.90
9980;DHT22;5030;51.532;6.766;2023-04-24T07:04:28;9.20;99.90
9980;DHT22;5030;51.532;6.766;2023-04-24T07:06:54;9.20;99.90
9980;DHT22;5030;51.532;6.766;2023-04-24T07:09:21;9.10;99.90
9980;DHT22;5030;51.532;6.766;2023-04-24T07:11:47;9.10;99.90
9980;DHT22;5030;51.532;6.766;2023-04-24T07:14:14;9.00;99.90
9980;DHT22;5030;51.532;6.766;2023-04-24T07:16:40;9.00;99.90
9980;DHT22;5030;51.532;6.766;2023-04-24T07:19:07;9.10;99.90
9980;DHT22;5030;51.532;6.766;2023-04-24T07:21:32;9.00;99.90
9980;DHT22;5030;51.532;6.766;2023-04-24T07:23:58;8.90;99.90
9980;DHT22;5030;51.532;6.766;2023-04-24T07:26:25;9.00;99.90
9980;DHT22;5030;51.532;6.766;2023-04-24T07:28:51;9.10;99.90
9980;DHT22;5030;51.532;6.766;2023-04-24T07:31:17;9.20;99.90
9980;DHT22;5030;51.532;6.766;2023-04-24T07:33:42;9.10;99.90
9980;DHT22;5030;51.532;6.766;2023-04-24T07:36:08;9.10;99.90
9980;DHT22;5030;51.532;6.766;2023-04-24T07:38:33;9.00;99.90
9980;DHT22;5030;51.532;6.766;2023-04-24T07:40:59;9.00;99.90
9980;DHT22;5030;51.532;6.766;2023-04-24T07:43:25;8.90;99.90
9980;DHT22;5030;51.532;6.766;2023-04-24T07:45:51;8.90;99.90
9980;DHT22;5030;51.532;6.766;2023-04-24T07:48:17;9.00;99.90
9980;DHT22;5030;51.532;6.766;2023-04-24T07:50:43;8.90;99.90
9980;DHT22;5030;51.532;6.766;2023-04-24T07:53:09;8.80;99.90
9980;DHT22;5030;51.532;6.766;2023-04-24T07:55:35;8.70;99.90
9980;DHT22;5030;51.532;6.766;2023-04-24T07:58:01;8.50;99.90
9980;DHT22;5030;51.532;6.766;2023-04-24T08:00:27;8.50;99.90
9980;DHT22;5030;51.532;6.766;2023-04-24T08:02:52;8.60;99.90
9980;DHT22;5030;51.532;6.766;2023-04-24T08:05:18;8.60;99.90
9980;DHT22;5030;51.532;6.766;2023-04-24T08:07:45;8.40;99.90
9980;DHT22;5030;51.532;6.766;2023-04-24T08:10:11;8.50;99.90
9980;DHT22;5030;51.532;6.766;2023-04-24T08:12:38;8.40;99.90
9980;DHT22;5030;51.532;6.766;2023-04-24T08:15:05;8.50;99.90
9980;DHT22;5030;51.532;6.766;2023-04-24T08:17:30;8.40;99.90
9980;DHT22;5030;51.532;6.766;2023-04-24T08:19:56;8.20;99.90
9980;DHT22;5030;51.532;6.766;2023-04-24T08:22:27;8.20;99.90
9980;DHT22;5030;51.532;6.766;2023-04-24T08:24:53;8.30;99.90
9980;DHT22;5030;51.532;6.766;2023-04-24T08:27:18;8.30;99.90
9980;DHT22;5030;51.532;6.766;2023-04-24T08:29:44;8.30;99.90
9980;DHT22;5030;51.532;6.766;2023-04-24T08:32:10;8.40;99.90
9980;DHT22;5030;51.532;6.766;2023-04-24T08:34:35;8.40;99.90
9980;DHT22;5030;51.532;6.766;2023-04-24T08:37:01;8.40;99.90
9980;DHT22;5030;51.532;6.766;2023-04-24T08:39:27;8.60;99.90
9980;DHT22;5030;51.532;6.766;2023-04-24T08:41:53;8.70;99.90
9980;DHT22;5030;51.532;6.766;2023-04-24T08:44:20;8.80;99.90
9980;DHT22;5030;51.532;6.766;2023-04-24T08:46:47;8.80;99.90
9980;DHT22;5030;51.532;6.766;2023-04-24T08:49:15;9.00;99.90
9980;DHT22;5030;51.532;6.766;2023-04-24T08:51:42;9.10;99.90
9980;DHT22;5030;51.532;6.766;2023-04-24T08:54:08;9.00;99.90
9980;DHT22;5030;51.532;6.766;2023-04-24T08:56:34;9.30;99.90
9980;DHT22;5030;51.532;6.766;2023-04-24T08:59:04;9.00;99.90
9980;DHT22;5030;51.532;6.766;2023-04-24T09:01:32;9.10;99.90
9980;DHT22;5030;51.532;6.766;2023-04-24T09:04:03;9.00;99.90
9980;DHT22;5030;51.532;6.766;2023-04-24T09:06:30;9.00;99.90
9980;DHT22;5030;51.532;6.766;2023-04-24T09:09:00;9.00;99.90
9980;DHT22;5030;51.532;6.766;2023-04-24T09:11:26;9.00;99.90
9980;DHT22;5030;51.532;6.766;2023-04-24T09:13:53;8.90;99.90
9980;DHT22;5030;51.532;6.766;2023-04-24T09:16:20;8.90;99.90
9980;DHT22;5030;51.532;6.766;2023-04-24T09:18:46;8.80;99.90
9980;DHT22;5030;51.532;6.766;2023-04-24T09:21:11;8.80;99.90
9980;DHT22;5030;51.532;6.766;2023-04-24T09:23:38;8.80;99.90
9980;DHT22;5030;51.532;6.766;2023-04-24T09:26:04;8.70;99.90
9980;DHT22;5030;51.532;6.766;2023-04-24T09:28:31;8.70;99.90
9980;DHT22;5030;51.532;6.766;2023-04-24T09:31:19;8.70;99.90
9980;DHT22;5030;51.532;6.766;2023-04-24T09:34:02;8.60;99.90
9980;DHT22;5030;51.532;6.766;2023-04-24T09:36:38;8.60;99.90
9980;DHT22;5030;51.532;6.766;2023-04-24T09:39:05;8.50;99.90
9980;DHT22;5030;51.532;6.766;2023-04-24T09:41:32;8.50;99.90
9980;DHT22;5030;51.532;6.766;2023-04-24T09:44:14;8.40;99.90
9980;DHT22;5030;51.532;6.766;2023-04-24T09:46:41;8.30;99.90
9980;DHT22;5030;51.532;6.766;2023-04-24T09:49:15;8.30;99.90
9980;DHT22;5030;51.532;6.766;2023-04-24T09:51:42;8.40;99.90
9980;DHT22;5030;51.532;6.766;2023-04-24T09:54:16;8.40;99.90
9980;DHT22;5030;51.532;6.766;2023-04-24T09:56:44;8.40;99.90
9980;DHT22;5030;51.532;6.766;2023-04-24T09:59:11;8.50;99.90
9980;DHT22;5030;51.532;6.766;2023-04-24T10:01:37;8.40;99.90
9980;DHT22;5030;51.532;6.766;2023-04-24T10:04:04;8.50;99.90
9980;DHT22;5030;51.532;6.766;2023-04-24T10:06:36;8.30;99.90
9980;DHT22;5030;51.532;6.766;2023-04-24T10:09:02;8.40;99.90
9980;DHT22;5030;51.532;6.766;2023-04-24T10:11:29;8.40;99.90
9980;DHT22;5030;51.532;6.766;2023-04-24T10:13:56;8.40;99.90
9980;DHT22;5030;51.532;6.766;2023-04-24T10:16:23;8.50;99.90
9980;DHT22;5030;51.532;6.766;2023-04-24T10:18:49;8.50;99.90
9980;DHT22;5030;51.532;6.766;2023-04-24T10:21:16;8.50;99.90
9980;DHT22;5030;51.532;6.766;2023-04-24T10:23:42;8.50;99.90
9980;DHT22;5030;51.532;6.766;2023-04-24T10:26:12;8.50;99.90
9980;DHT22;5030;51.532;6.766;2023-04-24T10:28:44;8.50;99.90
9980;DHT22;5030;51.532;6.766;2023-04-24T10:31:12;8.70;99.90
9980;DHT22;5030;51.532;6.766;2023-04-24T10:33:39;8.50;99.90
9980;DHT22;5030;51.532;6.766;2023-04-24T10:36:09;8.60;99.90
9980;DHT22;5030;51.532;6.766;2023-04-24T10:38:37;8.60;99.90
9980;DHT22;5030;51.532;6.766;2023-04-24T10:41:08;8.60;99.90
9980;DHT22;5030;51.532;6.766;2023-04-24T10:43:42;8.70;99.90
9980;DHT22;5030;51.532;6.766;2023-04-24T10:46:08;8.70;99.90
9980;DHT22;5030;51.532;6.766;2023-04-24T10:48:36;8.80;99.90
9980;DHT22;5030;51.532;6.766;2023-04-24T10:51:11;8.70;99.90
9980;DHT22;5030;51.532;6.766;2023-04-24T10:53:37;8.90;99.90
9980;DHT22;5030;51.532;6.766;2023-04-24T10:56:08;8.90;99.90
9980;DHT22;5030;51.532;6.766;2023-04-24T10:58:41;9.00;99.90
9980;DHT22;5030;51.532;6.766;2023-04-24T11:01:27;9.20;99.90
9980;DHT22;5030;51.532;6.766;2023-04-24T11:04:00;9.50;99.90
9980;DHT22;5030;51.532;6.766;2023-04-24T11:06:35;9.80;99.90
9980;DHT22;5030;51.532;6.766;2023-04-24T11:09:11;9.70;99.90
9980;DHT22;5030;51.532;6.766;2023-04-24T11:11:45;9.90;99.90
9980;DHT22;5030;51.532;6.766;2023-04-24T11:14:14;9.90;99.90
9980;DHT22;5030;51.532;6.766;2023-04-24T11:16:53;9.90;99.90
9980;DHT22;5030;51.532;6.766;2023-04-24T11:19:22;9.90;99.90
9980;DHT22;5030;51.532;6.766;2023-04-24T11:22:03;10.00;99.90
9980;DHT22;5030;51.532;6.766;2023-04-24T11:30:16;9.80;99.90
9980;DHT22;5030;51.532;6.766;2023-04-24T11:32:40;9.70;99.90
9980;DHT22;5030;51.532;6.766;2023-04-24T11:35:18;9.50;99.90
9980;DHT22;5030;51.532;6.766;2023-04-24T11:37:46;9.30;99.90
9980;DHT22;5030;51.532;6.766;2023-04-24T11:40:14;9.40;99.90
9980;DHT22;5030;51.532;6.766;2023-04-24T11:42:47;9.40;99.90
9980;DHT22;5030;51.532;6.766;2023-04-24T11:45:21;9.70;99.90
9980;DHT22;5030;51.532;6.766;2023-04-24T11:47:47;9.80;99.90
9980;DHT22;5030;51.532;6.766;2023-04-24T11:50:14;10.10;99.90
9980;DHT22;5030;51.532;6.766;2023-04-24T11:52:42;9.90;99.90
9980;DHT22;5030;51.532;6.766;2023-04-24T11:57:50;10.00;99.90
9980;DHT22;5030;51.532;6.766;2023-04-24T12:00:17;10.00;99.90
9980;DHT22;5030;51.532;6.766;2023-04-24T12:02:44;10.00;99.90
9980;DHT22;5030;51.532;6.766;2023-04-24T12:05:22;9.90;99.90
9980;DHT22;5030;51.532;6.766;2023-04-24T12:07:48;9.80;99.90
9980;DHT22;5030;51.532;6.766;2023-04-24T12:10:19;9.80;99.90
9980;DHT22;5030;51.532;6.766;2023-04-24T12:12:45;9.80;99.90
9980;DHT22;5030;51.532;6.766;2023-04-24T12:15:12;9.60;99.90
9980;DHT22;5030;51.532;6.766;2023-04-24T12:17:41;9.50;99.90
9980;DHT22;5030;51.532;6.766;2023-04-24T12:20:08;9.70;99.90
9980;DHT22;5030;51.532;6.766;2023-04-24T12:22:47;9.70;99.90
9980;DHT22;5030;51.532;6.766;2023-04-24T12:25:16;9.70;99.90
9980;DHT22;5030;51.532;6.766;2023-04-24T12:27:44;9.80;99.90
9980;DHT22;5030;51.532;6.766;2023-04-24T12:30:12;9.90;99.90
9980;DHT22;5030;51.532;6.766;2023-04-24T12:32:43;10.20;99.90
9980;DHT22;5030;51.532;6.766;2023-04-24T12:35:09;10.30;99.90
9980;DHT22;5030;51.532;6.766;2023-04-24T12:37:34;10.20;99.90
9980;DHT22;5030;51.532;6.766;2023-04-24T12:40:09;10.20;99.90
9980;DHT22;5030;51.532;6.766;2023-04-24T12:42:43;10.30;99.90
9980;DHT22;5030;51.532;6.766;2023-04-24T12:45:09;10.40;99.90
9980;DHT22;5030;51.532;6.766;2023-04-24T12:47:37;10.50;99.90
9980;DHT22;5030;51.532;6.766;2023-04-24T12:50:03;10.80;99.90
9980;DHT22;5030;51.532;6.766;2023-04-24T12:52:30;10.80;99.90
9980;DHT22;5030;51.532;6.766;2023-04-24T12:55:00;10.80;99.90
9980;DHT22;5030;51.532;6.766;2023-04-24T12:57:27;10.60;99.90
9980;DHT22;5030;51.532;6.766;2023-04-24T12:59:54;10.60;99.90
9980;DHT22;5030;51.532;6.766;2023-04-24T13:02:22;10.60;99.90
9980;DHT22;5030;51.532;6.766;2023-04-24T13:04:48;10.60;99.90
9980;DHT22;5030;51.532;6.766;2023-04-24T13:07:14;10.60;99.90
9980;DHT22;5030;51.532;6.766;2023-04-24T13:09:41;10.40;99.90
9980;DHT22;5030;51.532;6.766;2023-04-24T13:12:07;10.30;99.90
9980;DHT22;5030;51.532;6.766;2023-04-24T13:14:34;10.20;99.90
9980;DHT22;5030;51.532;6.766;2023-04-24T13:17:00;10.20;99.90
9980;DHT22;5030;51.532;6.766;2023-04-24T13:19:26;10.20;99.90
9980;DHT22;5030;51.532;6.766;2023-04-24T13:21:56;10.20;99.90
9980;DHT22;5030;51.532;6.766;2023-04-24T13:24:23;10.10;99.90
9980;DHT22;5030;51.532;6.766;2023-04-24T13:26:55;10.20;99.90
9980;DHT22;5030;51.532;6.766;2023-04-24T13:29:22;10.30;99.90
9980;DHT22;5030;51.532;6.766;2023-04-24T13:31:50;10.40;99.90
9980;DHT22;5030;51.532;6.766;2023-04-24T13:34:17;10.40;99.90
9980;DHT22;5030;51.532;6.766;2023-04-24T13:36:43;10.40;99.90
9980;DHT22;5030;51.532;6.766;2023-04-24T13:39:09;10.70;99.90
9980;DHT22;5030;51.532;6.766;2023-04-24T13:41:34;10.90;99.90
9980;DHT22;5030;51.532;6.766;2023-04-24T13:44:02;11.10;99.90
9980;DHT22;5030;51.532;6.766;2023-04-24T13:46:28;11.60;99.90
9980;DHT22;5030;51.532;6.766;2023-04-24T13:48:53;11.50;99.90
9980;DHT22;5030;51.532;6.766;2023-04-24T13:51:19;11.70;99.90
9980;DHT22;5030;51.532;6.766;2023-04-24T13:53:45;11.80;99.90
9980;DHT22;5030;51.532;6.766;2023-04-24T13:56:11;12.10;99.90
9980;DHT22;5030;51.532;6.766;2023-04-24T13:58:38;11.80;99.50
9980;DHT22;5030;51.532;6.766;2023-04-24T14:01:04;11.30;99.90
9980;DHT22;5030;51.532;6.766;2023-04-24T14:03:30;10.90;99.90
9980;DHT22;5030;51.532;6.766;2023-04-24T14:05:56;10.80;99.90
9980;DHT22;5030;51.532;6.766;2023-04-24T14:08:21;10.60;99.90
9980;DHT22;5030;51.532;6.766;2023-04-24T14:10:47;10.50;99.90
9980;DHT22;5030;51.532;6.766;2023-04-24T14:13:13;10.50;99.90
9980;DHT22;5030;51.532;6.766;2023-04-24T14:15:38;10.40;99.90
9980;DHT22;5030;51.532;6.766;2023-04-24T14:18:05;10.30;99.90
9980;DHT22;5030;51.532;6.766;2023-04-24T14:20:30;10.30;99.90
9980;DHT22;5030;51.532;6.766;2023-04-24T14:22:56;10.00;99.90
9980;DHT22;5030;51.532;6.766;2023-04-24T14:25:24;9.90;99.90
9980;DHT22;5030;51.532;6.766;2023-04-24T14:27:50;9.80;99.90
9980;DHT22;5030;51.532;6.766;2023-04-24T14:30:16;9.70;99.90
9980;DHT22;5030;51.532;6.766;2023-04-24T14:32:42;9.80;99.90
9980;DHT22;5030;51.532;6.766;2023-04-24T14:35:08;9.80;99.90
9980;DHT22;5030;51.532;6.766;2023-04-24T14:37:34;9.80;99.90
9980;DHT22;5030;51.532;6.766;2023-04-24T14:40:01;9.80;99.90
9980;DHT22;5030;51.532;6.766;2023-04-24T14:42:27;9.70;99.90
9980;DHT22;5030;51.532;6.766;2023-04-24T14:44:54;9.80;99.90
9980;DHT22;5030;51.532;6.766;2023-04-24T14:47:20;9.80;99.90
9980;DHT22;5030;51.532;6.766;2023-04-24T14:49:49;9.80;99.90
9980;DHT22;5030;51.532;6.766;2023-04-24T14:52:15;10.00;99.90
9980;DHT22;5030;51.532;6.766;2023-04-24T14:54:41;10.20;99.90
9980;DHT22;5030;51.532;6.766;2023-04-24T14:57:07;10.40;99.90
9980;DHT22;5030;51.532;6.766;2023-04-24T14:59:34;10.90;99.90
9980;DHT22;5030;51.532;6.766;2023-04-24T15:02:00;11.10;99.90
9980;DHT22;5030;51.532;6.766;2023-04-24T15:04:25;11.10;99.90
9980;DHT22;5030;51.532;6.766;2023-04-24T15:06:52;11.20;99.90
9980;DHT22;5030;51.532;6.766;2023-04-24T15:09:22;11.10;99.90
9980;DHT22;5030;51.532;6.766;2023-04-24T15:11:48;11.10;99.90
9980;DHT22;5030;51.532;6.766;2023-04-24T15:14:15;11.40;99.90
9980;DHT22;5030;51.532;6.766;2023-04-24T15:16:40;11.40;99.90
9980;DHT22;5030;51.532;6.766;2023-04-24T15:19:06;11.30;99.90
9980;DHT22;5030;51.532;6.766;2023-04-24T15:21:32;11.10;99.90
9980;DHT22;5030;51.532;6.766;2023-04-24T15:23:58;11.10;99.90
9980;DHT22;5030;51.532;6.766;2023-04-24T15:26:24;11.10;99.90
9980;DHT22;5030;51.532;6.766;2023-04-24T15:28:51;11.30;99.90
9980;DHT22;5030;51.532;6.766;2023-04-24T15:31:18;11.30;99.90
9980;DHT22;5030;51.532;6.766;2023-04-24T15:33:44;11.30;99.90
9980;DHT22;5030;51.532;6.766;2023-04-24T15:36:10;11.20;99.90
9980;DHT22;5030;51.532;6.766;2023-04-24T15:38:36;11.10;99.90
9980;DHT22;5030;51.532;6.766;2023-04-24T15:41:02;10.90;99.90
9980;DHT22;5030;51.532;6.766;2023-04-24T15:43:28;11.00;99.90
9980;DHT22;5030;51.532;6.766;2023-04-24T15:45:59;11.20;99.90
9980;DHT22;5030;51.532;6.766;2023-04-24T15:48:25;11.60;99.90
9980;DHT22;5030;51.532;6.766;2023-04-24T15:50:50;11.80;99.90
9980;DHT22;5030;51.532;6.766;2023-04-24T15:53:16;11.80;99.90
9980;DHT22;5030;51.532;6.766;2023-04-24T15:55:50;11.70;99.90
9980;DHT22;5030;51.532;6.766;2023-04-24T15:58:17;11.90;99.60
9980;DHT22;5030;51.532;6.766;2023-04-24T16:00:44;12.10;96.60
9980;DHT22;5030;51.532;6.766;2023-04-24T16:03:11;12.50;96.00
9980;DHT22;5030;51.532;6.766;2023-04-24T16:05:37;12.60;93.50
9980;DHT22;5030;51.532;6.766;2023-04-24T16:08:03;12.20;96.30
9980;DHT22;5030;51.532;6.766;2023-04-24T16:10:29;11.80;99.90
9980;DHT22;5030;51.532;6.766;2023-04-24T16:12:55;11.50;99.90
9980;DHT22;5030;51.532;6.766;2023-04-24T16:15:21;11.20;99.90
9980;DHT22;5030;51.532;6.766;2023-04-24T16:17:47;11.00;99.90